sensor_id;sensor_type;location;lat;lon;timestamp;temperature;humidity
53053;DHT22;38934;52.690;6.184;2023-11-22T00:02:17;4.40;99.90
53053;DHT22;38934;52.690;6.184;2023-11-22T00:04:43;4.30;99.90
53053;DHT22;38934;52.690;6.184;2023-11-22T00:07:09;4.30;99.90
53053;DHT22;38934;52.690;6.184;2023-11-22T00:09:34;4.20;99.90
53053;DHT22;38934;52.690;6.184;2023-11-22T00:12:00;4.20;99.90
53053;DHT22;38934;52.690;6.184;2023-11-22T00:14:26;4.20;99.90
53053;DHT22;38934;52.690;6.184;2023-11-22T00:16:52;4.20;99.90
53053;DHT22;38934;52.690;6.184;2023-11-22T00:19:18;4.20;99.90
53053;DHT22;38934;52.690;6.184;2023-11-22T00:21:48;4.20;99.90
53053;DHT22;38934;52.690;6.184;2023-11-22T00:24:13;4.20;99.90
53053;DHT22;38934;52.690;6.184;2023-11-22T00:26:39;4.10;99.90
53053;DHT22;38934;52.690;6.184;2023-11-22T00:29:05;4.20;99.90
53053;DHT22;38934;52.690;6.184;2023-11-22T00:31:30;4.10;99.90
53053;DHT22;38934;52.690;6.184;2023-11-22T00:33:56;4.10;99.90
53053;DHT22;38934;52.690;6.184;2023-11-22T00:36:22;4.10;99.90
53053;DHT22;38934;52.690;6.184;2023-11-22T00:38:47;4.10;99.90
53053;DHT22;38934;52.690;6.184;2023-11-22T00:41:13;4.10;99.90
53053;DHT22;38934;52.690;6.184;2023-11-22T00:43:40;4.00;99.90
53053;DHT22;38934;52.690;6.184;2023-11-22T00:46:05;3.90;99.90
53053;DHT22;38934;52.690;6.184;2023-11-22T00:48:31;3.90;99.90
53053;DHT22;38934;52.690;6.184;2023-11-22T00:50:57;4.00;99.90
53053;DHT22;38934;52.690;6.184;2023-11-22T00:53:22;3.90;99.90
53053;DHT22;38934;52.690;6.184;2023-11-22T00:55:49;3.90;99.90
53053;DHT22;38934;52.690;6.184;2023-11-22T00:58:14;3.80;99.90
53053;DHT22;38934;52.690;6.184;2023-11-22T01:00:40;3.70;99.90
53053;DHT22;38934;52.690;6.184;2023-11-22T01:03:06;3.70;99.90
53053;DHT22;38934;52.690;6.184;2023-11-22T01:05:34;3.70;99.90
53053;DHT22;38934;52.690;6.184;2023-11-22T01:07:59;3.60;99.90
53053;DHT22;38934;52.690;6.184;2023-11-22T01:10:25;3.50;99.90
53053;DHT22;38934;52.690;6.184;2023-11-22T01:12:51;3.50;99.90
53053;DHT22;38934;52.690;6.184;2023-11-22T01:15:16;3.40;99.90
53053;DHT22;38934;52.690;6.184;2023-11-22T01:17:42;3.40;99.90
53053;DHT22;38934;52.690;6.184;2023-11-22T01:20:08;3.40;99.90
53053;DHT22;38934;52.690;6.184;2023-11-22T01:22:35;3.30;99.90
53053;DHT22;38934;52.690;6.184;2023-11-22T01:25:04;3.30;99.90
53053;DHT22;38934;52.690;6.184;2023-11-22T01:27:30;3.30;99.90
53053;DHT22;38934;52.690;6.184;2023-11-22T01:29:55;3.30;99.90
53053;DHT22;38934;52.690;6.184;2023-11-22T01:32:21;3.20;99.90
53053;DHT22;38934;52.690;6.184;2023-11-22T01:34:47;3.20;99.90
53053;DHT22;38934;52.690;6.184;2023-11-22T01:37:13;3.20;99.90
53053;DHT22;38934;52.690;6.184;2023-11-22T01:39:42;3.10;99.90
53053;DHT22;38934;52.690;6.184;2023-11-22T01:42:08;3.10;99.90
53053;DHT22;38934;52.690;6.184;2023-11-22T01:44:33;3.00;99.90
53053;DHT22;38934;52.690;6.184;2023-11-22T01:46:59;3.00;99.90
53053;DHT22;38934;52.690;6.184;2023-11-22T01:49:25;3.00;99.90
53053;DHT22;38934;52.690;6.184;2023-11-22T01:51:50;2.90;99.90
53053;DHT22;38934;52.690;6.184;2023-11-22T01:54:18;2.90;99.90
53053;DHT22;38934;52.690;6.184;2023-11-22T01:56:44;2.90;99.90
53053;DHT22;38934;52.690;6.184;2023-11-22T01:59:10;2.80;99.90
53053;DHT22;38934;52.690;6.184;2023-11-22T02:01:36;2.80;99.90
53053;DHT22;38934;52.690;6.184;2023-11-22T02:04:02;2.80;99.90
53053;DHT22;38934;52.690;6.184;2023-11-22T02:06:28;2.70;99.90
53053;DHT22;38934;52.690;6.184;2023-11-22T02:08:56;2.70;99.90
53053;DHT22;38934;52.690;6.184;2023-11-22T02:11:22;2.70;99.90
53053;DHT22;38934;52.690;6.184;2023-11-22T02:13:49;2.60;99.90
53053;DHT22;38934;52.690;6.184;2023-11-22T02:16:18;2.60;99.90
53053;DHT22;38934;52.690;6.184;2023-11-22T02:18:48;2.60;99.90
53053;DHT22;38934;52.690;6.184;2023-11-22T02:21:16;2.60;99.90
53053;DHT22;38934;52.690;6.184;2023-11-22T02:23:42;2.50;99.90
53053;DHT22;38934;52.690;6.184;2023-11-22T02:26:08;2.50;99.90
53053;DHT22;38934;52.690;6.184;2023-11-22T02:28:34;2.50;99.90
53053;DHT22;38934;52.690;6.184;2023-11-22T02:30:59;2.50;99.90
53053;DHT22;38934;52.690;6.184;2023-11-22T02:33:25;2.50;99.90
53053;DHT22;38934;52.690;6.184;2023-11-22T02:35:50;2.40;99.90
53053;DHT22;38934;52.690;6.184;2023-11-22T02:38:16;2.40;99.90
53053;DHT22;38934;52.690;6.184;2023-11-22T02:40:43;2.40;99.90
53053;DHT22;38934;52.690;6.184;2023-11-22T02:43:09;2.40;99.90
53053;DHT22;38934;52.690;6.184;2023-11-22T02:45:37;2.30;99.90
53053;DHT22;38934;52.690;6.184;2023-11-22T02:48:04;2.30;99.90
53053;DHT22;38934;52.690;6.184;2023-11-22T02:50:35;2.30;99.90
53053;DHT22;38934;52.690;6.184;2023-11-22T02:53:00;2.20;99.90
53053;DHT22;38934;52.690;6.184;2023-11-22T02:55:27;2.20;99.90
53053;DHT22;38934;52.690;6.184;2023-11-22T02:57:52;2.20;99.90
53053;DHT22;38934;52.690;6.184;2023-11-22T03:00:18;2.20;99.90
53053;DHT22;38934;52.690;6.184;2023-11-22T03:02:45;2.20;99.90
53053;DHT22;38934;52.690;6.184;2023-11-22T03:05:12;2.10;99.90
53053;DHT22;38934;52.690;6.184;2023-11-22T03:07:39;2.10;99.90
53053;DHT22;38934;52.690;6.184;2023-11-22T03:10:06;2.10;99.90
53053;DHT22;38934;52.690;6.184;2023-11-22T03:12:33;2.10;99.90
53053;DHT22;38934;52.690;6.184;2023-11-22T03:14:59;2.00;99.90
53053;DHT22;38934;52.690;6.184;2023-11-22T03:17:28;2.00;99.90
53053;DHT22;38934;52.690;6.184;2023-11-22T03:19:57;2.00;99.90
53053;DHT22;38934;52.690;6.184;2023-11-22T03:22:24;1.90;99.90
53053;DHT22;38934;52.690;6.184;2023-11-22T03:24:50;1.90;99.90
53053;DHT22;38934;52.690;6.184;2023-11-22T03:27:15;1.90;99.90
53053;DHT22;38934;52.690;6.184;2023-11-22T03:29:41;1.90;99.90
53053;DHT22;38934;52.690;6.184;2023-11-22T03:32:07;1.90;99.90
53053;DHT22;38934;52.690;6.184;2023-11-22T03:34:32;1.90;99.90
53053;DHT22;38934;52.690;6.184;2023-11-22T03:36:58;1.90;99.90
53053;DHT22;38934;52.690;6.184;2023-11-22T03:39:23;2.00;99.90
53053;DHT22;38934;52.690;6.184;2023-11-22T03:41:50;1.80;99.90
53053;DHT22;38934;52.690;6.184;2023-11-22T03:44:16;1.80;99.90
53053;DHT22;38934;52.690;6.184;2023-11-22T03:46:42;1.80;99.90
53053;DHT22;38934;52.690;6.184;2023-11-22T03:49:08;1.80;99.90
53053;DHT22;38934;52.690;6.184;2023-11-22T03:51:34;1.70;99.90
53053;DHT22;38934;52.690;6.184;2023-11-22T03:54:01;1.70;99.90
53053;DHT22;38934;52.690;6.184;2023-11-22T03:56:28;1.70;99.90
53053;DHT22;38934;52.690;6.184;2023-11-22T03:58:53;1.70;99.90
53053;DHT22;38934;52.690;6.184;2023-11-22T04:01:19;1.70;99.90
53053;DHT22;38934;52.690;6.184;2023-11-22T04:03:49;1.60;99.90
53053;DHT22;38934;52.690;6.184;2023-11-22T04:06:18;1.60;99.90
53053;DHT22;38934;52.690;6.184;2023-11-22T04:08:45;1.60;99.90
53053;DHT22;38934;52.690;6.184;2023-11-22T04:11:12;1.60;99.90
53053;DHT22;38934;52.690;6.184;2023-11-22T04:13:37;1.60;99.90
53053;DHT22;38934;52.690;6.184;2023-11-22T04:16:04;1.50;99.90
53053;DHT22;38934;52.690;6.184;2023-11-22T04:18:30;1.50;99.90
53053;DHT22;38934;52.690;6.184;2023-11-22T04:20:56;1.50;99.90
53053;DHT22;38934;52.690;6.184;2023-11-22T04:23:23;1.50;99.90
53053;DHT22;38934;52.690;6.184;2023-11-22T04:25:49;1.50;99.90
53053;DHT22;38934;52.690;6.184;2023-11-22T04:28:15;1.40;99.90
53053;DHT22;38934;52.690;6.184;2023-11-22T04:30:41;1.40;99.90
53053;DHT22;38934;52.690;6.184;2023-11-22T04:33:07;1.40;99.90
53053;DHT22;38934;52.690;6.184;2023-11-22T04:35:32;1.40;99.90
53053;DHT22;38934;52.690;6.184;2023-11-22T04:38:02;1.40;99.90
53053;DHT22;38934;52.690;6.184;2023-11-22T04:40:29;1.30;99.90
53053;DHT22;38934;52.690;6.184;2023-11-22T04:42:55;1.30;99.90
53053;DHT22;38934;52.690;6.184;2023-11-22T04:45:20;1.30;99.90
53053;DHT22;38934;52.690;6.184;2023-11-22T04:47:46;1.30;99.90
53053;DHT22;38934;52.690;6.184;2023-11-22T04:50:11;1.30;99.90
53053;DHT22;38934;52.690;6.184;2023-11-22T04:52:37;1.30;99.90
53053;DHT22;38934;52.690;6.184;2023-11-22T04:55:03;1.30;99.90
53053;DHT22;38934;52.690;6.184;2023-11-22T04:57:30;1.30;99.90
53053;DHT22;38934;52.690;6.184;2023-11-22T04:59:55;1.30;99.90
53053;DHT22;38934;52.690;6.184;2023-11-22T05:02:21;1.30;99.90
53053;DHT22;38934;52.690;6.184;2023-11-22T05:04:46;1.30;99.90
53053;DHT22;38934;52.690;6.184;2023-11-22T05:07:17;1.20;99.90
53053;DHT22;38934;52.690;6.184;2023-11-22T05:09:44;1.30;99.90
53053;DHT22;38934;52.690;6.184;2023-11-22T05:12:10;1.30;99.90
53053;DHT22;38934;52.690;6.184;2023-11-22T05:14:37;1.30;99.90
53053;DHT22;38934;52.690;6.184;2023-11-22T05:17:03;1.30;99.90
53053;DHT22;38934;52.690;6.184;2023-11-22T05:19:30;1.30;99.90
53053;DHT22;38934;52.690;6.184;2023-11-22T05:21:56;1.30;99.90
53053;DHT22;38934;52.690;6.184;2023-11-22T05:24:22;1.40;99.90
53053;DHT22;38934;52.690;6.184;2023-11-22T05:26:48;1.40;99.90
53053;DHT22;38934;52.690;6.184;2023-11-22T05:29:13;1.40;99.90
53053;DHT22;38934;52.690;6.184;2023-11-22T05:31:39;1.40;99.90
53053;DHT22;38934;52.690;6.184;2023-11-22T05:34:04;1.50;99.90
53053;DHT22;38934;52.690;6.184;2023-11-22T05:36:30;1.50;99.90
53053;DHT22;38934;52.690;6.184;2023-11-22T05:38:56;1.50;99.90
53053;DHT22;38934;52.690;6.184;2023-11-22T05:41:25;1.50;99.90
53053;DHT22;38934;52.690;6.184;2023-11-22T05:43:51;1.60;99.90
53053;DHT22;38934;52.690;6.184;2023-11-22T05:46:19;1.60;99.90
53053;DHT22;38934;52.690;6.184;2023-11-22T05:48:47;1.60;99.90
53053;DHT22;38934;52.690;6.184;2023-11-22T05:51:15;1.60;99.90
53053;DHT22;38934;52.690;6.184;2023-11-22T05:53:40;1.70;99.90
53053;DHT22;38934;52.690;6.184;2023-11-22T05:56:06;1.70;99.90
53053;DHT22;38934;52.690;6.184;2023-11-22T05:58:34;1.70;99.90
53053;DHT22;38934;52.690;6.184;2023-11-22T06:01:04;1.70;99.90
53053;DHT22;38934;52.690;6.184;2023-11-22T06:03:29;1.70;99.90
53053;DHT22;38934;52.690;6.184;2023-11-22T06:05:55;1.80;99.90
53053;DHT22;38934;52.690;6.184;2023-11-22T06:08:23;2.40;99.90
53053;DHT22;38934;52.690;6.184;2023-11-22T06:10:48;1.70;99.90
53053;DHT22;38934;52.690;6.184;2023-11-22T06:13:14;1.80;99.90
53053;DHT22;38934;52.690;6.184;2023-11-22T06:15:40;1.70;99.90
53053;DHT22;38934;52.690;6.184;2023-11-22T06:18:06;1.80;99.90
53053;DHT22;38934;52.690;6.184;2023-11-22T06:20:31;1.80;99.90
53053;DHT22;38934;52.690;6.184;2023-11-22T06:22:57;1.80;99.90
53053;DHT22;38934;52.690;6.184;2023-11-22T06:25:22;1.80;99.90
53053;DHT22;38934;52.690;6.184;2023-11-22T06:27:48;1.80;99.90
53053;DHT22;38934;52.690;6.184;2023-11-22T06:30:14;1.80;99.90
53053;DHT22;38934;52.690;6.184;2023-11-22T06:32:40;1.80;99.90
53053;DHT22;38934;52.690;6.184;2023-11-22T06:35:09;1.80;99.90
53053;DHT22;38934;52.690;6.184;2023-11-22T06:37:35;1.80;99.90
53053;DHT22;38934;52.690;6.184;2023-11-22T06:40:01;1.80;99.90
53053;DHT22;38934;52.690;6.184;2023-11-22T06:42:27;1.80;99.90
53053;DHT22;38934;52.690;6.184;2023-11-22T06:44:53;1.80;99.90
53053;DHT22;38934;52.690;6.184;2023-11-22T06:47:19;1.80;99.90
53053;DHT22;38934;52.690;6.184;2023-11-22T06:49:45;1.80;99.90
53053;DHT22;38934;52.690;6.184;2023-11-22T06:52:11;1.80;99.90
53053;DHT22;38934;52.690;6.184;2023-11-22T06:54:38;2.20;99.90
53053;DHT22;38934;52.690;6.184;2023-11-22T06:57:03;1.80;99.90
53053;DHT22;38934;52.690;6.184;2023-11-22T06:59:29;1.80;99.90
53053;DHT22;38934;52.690;6.184;2023-11-22T07:01:55;1.80;99.90
53053;DHT22;38934;52.690;6.184;2023-11-22T07:04:23;1.80;99.90
53053;DHT22;38934;52.690;6.184;2023-11-22T07:06:49;1.80;99.90
53053;DHT22;38934;52.690;6.184;2023-11-22T07:09:15;1.80;99.90
53053;DHT22;38934;52.690;6.184;2023-11-22T07:11:41;1.80;99.90
53053;DHT22;38934;52.690;6.184;2023-11-22T07:14:09;1.80;99.90
53053;DHT22;38934;52.690;6.184;2023-11-22T07:16:34;1.80;99.90
53053;DHT22;38934;52.690;6.184;2023-11-22T07:19:01;1.80;99.90
53053;DHT22;38934;52.690;6.184;2023-11-22T07:21:32;1.90;99.90
53053;DHT22;38934;52.690;6.184;2023-11-22T07:23:58;1.90;99.90
53053;DHT22;38934;52.690;6.184;2023-11-22T07:26:27;1.90;99.90
53053;DHT22;38934;52.690;6.184;2023-11-22T07:28:53;1.90;99.90
53053;DHT22;38934;52.690;6.184;2023-11-22T07:31:19;1.90;99.90
53053;DHT22;38934;52.690;6.184;2023-11-22T07:33:45;1.90;99.90
53053;DHT22;38934;52.690;6.184;2023-11-22T07:36:12;2.00;99.90
53053;DHT22;38934;52.690;6.184;2023-11-22T07:38:40;2.00;99.90
53053;DHT22;38934;52.690;6.184;2023-11-22T07:41:06;2.00;99.90
53053;DHT22;38934;52.690;6.184;2023-11-22T07:43:36;2.00;99.90
53053;DHT22;38934;52.690;6.184;2023-11-22T07:46:08;2.00;99.90
53053;DHT22;38934;52.690;6.184;2023-11-22T07:48:38;2.10;99.90
53053;DHT22;38934;52.690;6.184;2023-11-22T07:51:04;2.20;99.90
53053;DHT22;38934;52.690;6.184;2023-11-22T07:53:31;2.20;99.90
53053;DHT22;38934;52.690;6.184;2023-11-22T07:56:02;2.20;99.90
53053;DHT22;38934;52.690;6.184;2023-11-22T07:58:31;2.20;99.90
53053;DHT22;38934;52.690;6.184;2023-11-22T08:01:00;2.20;99.90
53053;DHT22;38934;52.690;6.184;2023-11-22T08:03:30;2.30;99.90
53053;DHT22;38934;52.690;6.184;2023-11-22T08:05:56;2.40;99.90
53053;DHT22;38934;52.690;6.184;2023-11-22T08:08:22;2.40;99.90
53053;DHT22;38934;52.690;6.184;2023-11-22T08:10:49;2.50;99.90
53053;DHT22;38934;52.690;6.184;2023-11-22T08:13:17;2.50;99.90
53053;DHT22;38934;52.690;6.184;2023-11-22T08:15:45;2.60;99.90
53053;DHT22;38934;52.690;6.184;2023-11-22T08:18:12;2.60;99.90
53053;DHT22;38934;52.690;6.184;2023-11-22T08:20:38;2.70;99.90
53053;DHT22;38934;52.690;6.184;2023-11-22T08:23:04;3.00;99.90
53053;DHT22;38934;52.690;6.184;2023-11-22T08:25:31;2.80;99.90
53053;DHT22;38934;52.690;6.184;2023-11-22T08:27:57;2.80;99.90
53053;DHT22;38934;52.690;6.184;2023-11-22T08:30:23;2.90;99.90
53053;DHT22;38934;52.690;6.184;2023-11-22T08:32:48;3.00;99.90
53053;DHT22;38934;52.690;6.184;2023-11-22T08:35:19;3.00;99.90
53053;DHT22;38934;52.690;6.184;2023-11-22T08:37:47;3.10;99.90
53053;DHT22;38934;52.690;6.184;2023-11-22T08:40:13;3.20;99.90
53053;DHT22;38934;52.690;6.184;2023-11-22T08:42:49;3.20;99.90
53053;DHT22;38934;52.690;6.184;2023-11-22T08:45:15;3.20;99.90
53053;DHT22;38934;52.690;6.184;2023-11-22T08:47:41;3.20;99.90
53053;DHT22;38934;52.690;6.184;2023-11-22T08:50:07;3.30;99.90
53053;DHT22;38934;52.690;6.184;2023-11-22T08:52:34;3.30;99.90
53053;DHT22;38934;52.690;6.184;2023-11-22T08:54:59;3.30;99.90
53053;DHT22;38934;52.690;6.184;2023-11-22T08:57:26;3.40;99.90
53053;DHT22;38934;52.690;6.184;2023-11-22T08:59:52;3.40;99.90
53053;DHT22;38934;52.690;6.184;2023-11-22T09:02:19;3.50;99.90
53053;DHT22;38934;52.690;6.184;2023-11-22T09:04:47;3.50;99.90
53053;DHT22;38934;52.690;6.184;2023-11-22T09:07:13;3.50;99.90
53053;DHT22;38934;52.690;6.184;2023-11-22T09:09:40;3.60;99.90
53053;DHT22;38934;52.690;6.184;2023-11-22T09:12:07;3.60;99.90
53053;DHT22;38934;52.690;6.184;2023-11-22T09:14:39;3.60;99.90
53053;DHT22;38934;52.690;6.184;2023-11-22T09:17:06;3.70;99.90
53053;DHT22;38934;52.690;6.184;2023-11-22T09:19:32;3.70;99.90
53053;DHT22;38934;52.690;6.184;2023-11-22T09:21:59;3.70;99.90
53053;DHT22;38934;52.690;6.184;2023-11-22T09:24:25;3.80;99.90
53053;DHT22;38934;52.690;6.184;2023-11-22T09:26:52;3.80;99.90
53053;DHT22;38934;52.690;6.184;2023-11-22T09:29:18;3.80;99.90
53053;DHT22;38934;52.690;6.184;2023-11-22T09:31:44;4.00;99.90
53053;DHT22;38934;52.690;6.184;2023-11-22T09:34:12;3.90;99.90
53053;DHT22;38934;52.690;6.184;2023-11-22T09:36:38;3.90;99.90
53053;DHT22;38934;52.690;6.184;2023-11-22T09:39:04;3.90;99.90
53053;DHT22;38934;52.690;6.184;2023-11-22T09:41:35;3.90;99.90
53053;DHT22;38934;52.690;6.184;2023-11-22T09:44:00;4.00;99.90
53053;DHT22;38934;52.690;6.184;2023-11-22T09:46:26;4.00;99.90
53053;DHT22;38934;52.690;6.184;2023-11-22T09:48:53;4.10;99.90
53053;DHT22;38934;52.690;6.184;2023-11-22T09:51:29;4.10;99.90
53053;DHT22;38934;52.690;6.184;2023-11-22T09:53:59;4.10;99.90
53053;DHT22;38934;52.690;6.184;2023-11-22T09:56:33;4.20;99.90
53053;DHT22;38934;52.690;6.184;2023-11-22T09:59:03;4.20;99.90
53053;DHT22;38934;52.690;6.184;2023-11-22T10:01:29;4.30;99.90
53053;DHT22;38934;52.690;6.184;2023-11-22T10:03:57;4.30;99.90
53053;DHT22;38934;52.690;6.184;2023-11-22T10:06:24;4.30;99.90
53053;DHT22;38934;52.690;6.184;2023-11-22T10:08:49;4.40;99.90
53053;DHT22;38934;52.690;6.184;2023-11-22T10:11:18;4.50;99.90
53053;DHT22;38934;52.690;6.184;2023-11-22T10:13:47;4.50;99.90
53053;DHT22;38934;52.690;6.184;2023-11-22T10:16:13;4.60;99.90
53053;DHT22;38934;52.690;6.184;2023-11-22T10:18:45;4.60;99.90
53053;DHT22;38934;52.690;6.184;2023-11-22T10:23:50;4.70;99.90
53053;DHT22;38934;52.690;6.184;2023-11-22T10:26:19;4.70;99.90
53053;DHT22;38934;52.690;6.184;2023-11-22T10:28:45;4.80;99.90
53053;DHT22;38934;52.690;6.184;2023-11-22T10:31:11;4.80;99.90
53053;DHT22;38934;52.690;6.184;2023-11-22T10:33:43;4.80;99.90
53053;DHT22;38934;52.690;6.184;2023-11-22T10:36:09;4.80;99.90
53053;DHT22;38934;52.690;6.184;2023-11-22T10:38:35;4.90;99.90
53053;DHT22;38934;52.690;6.184;2023-11-22T10:41:05;5.20;99.90
53053;DHT22;38934;52.690;6.184;2023-11-22T10:43:34;4.90;99.90
53053;DHT22;38934;52.690;6.184;2023-11-22T10:46:04;4.90;99.90
53053;DHT22;38934;52.690;6.184;2023-11-22T10:48:31;4.90;99.90
53053;DHT22;38934;52.690;6.184;2023-11-22T10:51:00;4.90;99.90
53053;DHT22;38934;52.690;6.184;2023-11-22T10:53:34;4.90;99.90
53053;DHT22;38934;52.690;6.184;2023-11-22T10:56:07;4.90;99.90
53053;DHT22;38934;52.690;6.184;2023-11-22T10:58:51;4.90;99.90
53053;DHT22;38934;52.690;6.184;2023-11-22T11:01:18;5.00;99.90
53053;DHT22;38934;52.690;6.184;2023-11-22T11:04:08;5.10;99.90
53053;DHT22;38934;52.690;6.184;2023-11-22T11:06:35;5.10;99.90
53053;DHT22;38934;52.690;6.184;2023-11-22T11:09:06;5.10;99.90
53053;DHT22;38934;52.690;6.184;2023-11-22T11:11:35;5.10;99.90
53053;DHT22;38934;52.690;6.184;2023-11-22T11:14:02;5.10;99.90
53053;DHT22;38934;52.690;6.184;2023-11-22T11:16:30;5.00;99.90
53053;DHT22;38934;52.690;6.184;2023-11-22T11:18:56;5.00;99.90
53053;DHT22;38934;52.690;6.184;2023-11-22T11:21:23;5.00;99.90
53053;DHT22;38934;52.690;6.184;2023-11-22T11:23:52;5.10;99.90
53053;DHT22;38934;52.690;6.184;2023-11-22T11:26:20;5.00;99.90
53053;DHT22;38934;52.690;6.184;2023-11-22T11:28:51;5.00;99.90
53053;DHT22;38934;52.690;6.184;2023-11-22T11:31:20;5.10;99.90
53053;DHT22;38934;52.690;6.184;2023-11-22T11:38:56;5.20;99.90
53053;DHT22;38934;52.690;6.184;2023-11-22T11:41:29;5.20;99.90
53053;DHT22;38934;52.690;6.184;2023-11-22T11:43:56;5.20;99.90
53053;DHT22;38934;52.690;6.184;2023-11-22T11:46:23;5.20;99.90
53053;DHT22;38934;52.690;6.184;2023-11-22T11:48:52;5.30;99.90
53053;DHT22;38934;52.690;6.184;2023-11-22T11:51:19;5.30;99.90
53053;DHT22;38934;52.690;6.184;2023-11-22T11:53:45;5.40;99.90
53053;DHT22;38934;52.690;6.184;2023-11-22T11:56:12;5.40;99.90
53053;DHT22;38934;52.690;6.184;2023-11-22T11:58:38;5.40;99.90
53053;DHT22;38934;52.690;6.184;2023-11-22T12:01:05;5.40;99.90
53053;DHT22;38934;52.690;6.184;2023-11-22T12:03:30;5.50;99.90
53053;DHT22;38934;52.690;6.184;2023-11-22T12:05:56;5.50;99.90
53053;DHT22;38934;52.690;6.184;2023-11-22T12:08:22;5.60;99.90
53053;DHT22;38934;52.690;6.184;2023-11-22T12:10:48;5.60;99.90
53053;DHT22;38934;52.690;6.184;2023-11-22T12:13:21;5.60;99.90
53053;DHT22;38934;52.690;6.184;2023-11-22T12:15:53;5.70;99.90
53053;DHT22;38934;52.690;6.184;2023-11-22T12:18:22;5.80;99.90
53053;DHT22;38934;52.690;6.184;2023-11-22T12:20:58;5.80;99.90
53053;DHT22;38934;52.690;6.184;2023-11-22T12:23:24;5.90;99.90
53053;DHT22;38934;52.690;6.184;2023-11-22T12:25:59;5.90;99.90
53053;DHT22;38934;52.690;6.184;2023-11-22T12:28:26;5.90;99.90
53053;DHT22;38934;52.690;6.184;2023-11-22T12:30:52;5.90;99.90
53053;DHT22;38934;52.690;6.184;2023-11-22T12:33:18;5.80;99.90
53053;DHT22;38934;52.690;6.184;2023-11-22T12:35:45;5.80;99.90
53053;DHT22;38934;52.690;6.184;2023-11-22T12:38:11;5.80;99.90
53053;DHT22;38934;52.690;6.184;2023-11-22T12:40:37;5.80;99.90
53053;DHT22;38934;52.690;6.184;2023-11-22T12:43:03;5.80;99.90
53053;DHT22;38934;52.690;6.184;2023-11-22T12:45:30;5.70;99.90
53053;DHT22;38934;52.690;6.184;2023-11-22T12:47:57;5.70;99.90
53053;DHT22;38934;52.690;6.184;2023-11-22T12:50:30;5.70;99.90
53053;DHT22;38934;52.690;6.184;2023-11-22T12:52:58;5.70;99.90
53053;DHT22;38934;52.690;6.184;2023-11-22T12:55:23;5.70;99.90
53053;DHT22;38934;52.690;6.184;2023-11-22T12:57:59;5.60;99.90
53053;DHT22;38934;52.690;6.184;2023-11-22T13:00:29;5.60;99.90
53053;DHT22;38934;52.690;6.184;2023-11-22T13:02:56;5.60;99.90
53053;DHT22;38934;52.690;6.184;2023-11-22T13:05:23;5.60;99.90
53053;DHT22;38934;52.690;6.184;2023-11-22T13:07:49;5.60;99.90
53053;DHT22;38934;52.690;6.184;2023-11-22T13:10:15;5.60;99.90
53053;DHT22;38934;52.690;6.184;2023-11-22T13:12:43;5.60;99.90
53053;DHT22;38934;52.690;6.184;2023-11-22T13:15:12;5.60;99.90
53053;DHT22;38934;52.690;6.184;2023-11-22T13:17:39;5.70;99.90
53053;DHT22;38934;52.690;6.184;2023-11-22T13:20:08;5.70;99.90
53053;DHT22;38934;52.690;6.184;2023-11-22T13:22:40;5.70;99.90
53053;DHT22;38934;52.690;6.184;2023-11-22T13:25:08;5.70;99.90
53053;DHT22;38934;52.690;6.184;2023-11-22T13:27:38;5.70;99.90
53053;DHT22;38934;52.690;6.184;2023-11-22T13:30:04;5.70;99.90
53053;DHT22;38934;52.690;6.184;2023-11-22T13:32:30;5.70;99.90
53053;DHT22;38934;52.690;6.184;2023-11-22T13:34:56;5.70;99.90
53053;DHT22;38934;52.690;6.184;2023-11-22T13:37:25;5.70;99.90
53053;DHT22;38934;52.690;6.184;2023-11-22T13:39:52;5.70;99.90
53053;DHT22;38934;52.690;6.184;2023-11-22T13:42:18;5.70;99.90
53053;DHT22;38934;52.690;6.184;2023-11-22T13:44:44;5.70;99.90
53053;DHT22;38934;52.690;6.184;2023-11-22T13:47:10;5.70;99.90
53053;DHT22;38934;52.690;6.184;2023-11-22T13:49:36;5.70;99.90
53053;DHT22;38934;52.690;6.184;2023-11-22T13:52:02;5.70;99.90
53053;DHT22;38934;52.690;6.184;2023-11-22T13:54:28;5.70;99.90
53053;DHT22;38934;52.690;6.184;2023-11-22T13:56:57;5.70;99.90
53053;DHT22;38934;52.690;6.184;2023-11-22T13:59:22;5.60;99.90
53053;DHT22;38934;52.690;6.184;2023-11-22T14:01:48;5.60;99.90
53053;DHT22;38934;52.690;6.184;2023-11-22T14:04:14;5.60;99.90
53053;DHT22;38934;52.690;6.184;2023-11-22T14:06:39;5.60;99.90
53053;DHT22;38934;52.690;6.184;2023-11-22T14:09:05;5.60;99.90
53053;DHT22;38934;52.690;6.184;2023-11-22T14:11:34;5.50;99.90
53053;DHT22;38934;52.690;6.184;2023-11-22T14:14:01;5.50;99.90
53053;DHT22;38934;52.690;6.184;2023-11-22T14:16:29;5.50;99.90
53053;DHT22;38934;52.690;6.184;2023-11-22T14:18:56;5.50;99.90
53053;DHT22;38934;52.690;6.184;2023-11-22T14:21:23;5.50;99.90
53053;DHT22;38934;52.690;6.184;2023-11-22T14:23:50;5.40;99.90
53053;DHT22;38934;52.690;6.184;2023-11-22T14:26:16;5.40;99.90
53053;DHT22;38934;52.690;6.184;2023-11-22T14:28:41;5.40;99.90
53053;DHT22;38934;52.690;6.184;2023-11-22T14:31:08;5.40;99.90
53053;DHT22;38934;52.690;6.184;2023-11-22T14:33:34;5.40;99.90
53053;DHT22;38934;52.690;6.184;2023-11-22T14:36:01;5.50;99.90
53053;DHT22;38934;52.690;6.184;2023-11-22T14:38:26;5.40;99.90
53053;DHT22;38934;52.690;6.184;2023-11-22T14:40:52;5.50;99.90
53053;DHT22;38934;52.690;6.184;2023-11-22T14:43:18;5.40;99.90
53053;DHT22;38934;52.690;6.184;2023-11-22T14:45:44;5.40;99.90
53053;DHT22;38934;52.690;6.184;2023-11-22T14:48:11;5.40;99.90
53053;DHT22;38934;52.690;6.184;2023-11-22T14:50:38;5.40;99.90
53053;DHT22;38934;52.690;6.184;2023-11-22T14:53:05;5.40;99.90
53053;DHT22;38934;52.690;6.184;2023-11-22T14:55:33;5.40;99.90
53053;DHT22;38934;52.690;6.184;2023-11-22T14:58:03;5.40;99.90
53053;DHT22;38934;52.690;6.184;2023-11-22T15:00:30;5.40;99.90
53053;DHT22;38934;52.690;6.184;2023-11-22T15:02:56;5.40;99.90
53053;DHT22;38934;52.690;6.184;2023-11-22T15:05:21;5.40;99.90
53053;DHT22;38934;52.690;6.184;2023-11-22T15:07:51;5.30;99.90
53053;DHT22;38934;52.690;6.184;2023-11-22T15:10:20;5.30;99.90
53053;DHT22;38934;52.690;6.184;2023-11-22T15:12:46;5.30;99.90
53053;DHT22;38934;52.690;6.184;2023-11-22T15:15:14;5.30;99.90
53053;DHT22;38934;52.690;6.184;2023-11-22T15:17:39;5.30;99.90
53053;DHT22;38934;52.690;6.184;2023-11-22T15:20:06;5.30;99.90
53053;DHT22;38934;52.690;6.184;2023-11-22T15:22:35;5.20;99.90
53053;DHT22;38934;52.690;6.184;2023-11-22T15:25:02;5.20;99.90
53053;DHT22;38934;52.690;6.184;2023-11-22T15:27:27;5.20;99.90
53053;DHT22;38934;52.690;6.184;2023-11-22T15:29:53;5.20;99.90
53053;DHT22;38934;52.690;6.184;2023-11-22T15:32:18;5.20;99.90
53053;DHT22;38934;52.690;6.184;2023-11-22T15:34:44;5.20;99.90
53053;DHT22;38934;52.690;6.184;2023-11-22T15:37:10;5.20;99.90
53053;DHT22;38934;52.690;6.184;2023-11-22T15:39:37;5.20;99.90
53053;DHT22;38934;52.690;6.184;2023-11-22T15:42:03;5.20;99.90
53053;DHT22;38934;52.690;6.184;2023-11-22T15:44:31;5.20;99.90
53053;DHT22;38934;52.690;6.184;2023-11-22T15:46:57;5.20;99.90
53053;DHT22;38934;52.690;6.184;2023-11-22T15:49:22;5.20;99.90
53053;DHT22;38934;52.690;6.184;2023-11-22T15:51:48;5.20;99.90